Time;durP1;ratioP1;P1;durP2;ratioP2;P2;SDS_P1;SDS_P2;PMS_P1;PMS_P2;Temp;Humidity;BMP_temperature;BMP_pressure;BME280_temperature;BME280_humidity;BME280_pressure;Samples;Min_cycle;Max_cycle;Signal;HPM_P1;HPM_P2
2023/05/05 00:01:44;;;;;;;;;;;18.60;59.40;;;;;;10247226;28;92701;-73
2023/05/05 00:06:46;;;;;;;;;;;18.60;59.40;;;;;;10228644;28;94477;-73
2023/05/05 00:11:47;;;;;;;;;;;18.50;59.40;;;;;;10247044;28;94467;-73
2023/05/05 00:16:49;;;;;;;;;;;18.50;59.30;;;;;;10243624;28;96834;-73
2023/05/05 00:21:51;;;;;;;;;;;18.60;59.40;;;;;;10247561;28;93504;-73
2023/05/05 00:26:53;;;;;;;;;;;18.60;59.30;;;;;;10253178;28;93278;-73
2023/05/05 00:31:55;;;;;;;;;;;18.60;59.30;;;;;;10252665;28;93226;-73
2023/05/05 00:36:56;;;;;;;;;;;18.50;59.20;;;;;;10252786;28;93648;-72
2023/05/05 00:41:58;;;;;;;;;;;18.60;59.30;;;;;;10252061;28;93672;-73
2023/05/05 00:47:00;;;;;;;;;;;18.50;59.10;;;;;;10251737;28;93034;-73
2023/05/05 00:52:02;;;;;;;;;;;18.50;59.10;;;;;;10252359;28;92745;-73
2023/05/05 00:57:05;;;;;;;;;;;18.50;59.10;;;;;;10251794;28;94355;-72
2023/05/05 01:02:06;;;;;;;;;;;18.60;59.10;;;;;;10252167;28;93550;-72
2023/05/05 01:07:15;;;;;;;;;;;18.60;59.00;;;;;;10249342;28;95498;-73
2023/05/05 01:12:20;;;;;;;;;;;18.60;60.00;;;;;;10234342;28;94447;-73
2023/05/05 01:17:26;;;;;;;;;;;18.60;59.00;;;;;;10251208;28;94432;-73
2023/05/05 01:22:33;;;;;;;;;;;18.50;58.90;;;;;;10250334;28;93530;-73
2023/05/05 01:27:54;;;;;;;;;;;18.60;58.90;;;;;;10251159;28;93144;-73
2023/05/05 01:32:59;;;;;;;;;;;18.50;58.70;;;;;;10250072;28;93115;-73
2023/05/05 01:38:10;;;;;;;;;;;18.50;58.80;;;;;;10249923;28;93389;-73
2023/05/05 01:43:14;;;;;;;;;;;18.50;58.70;;;;;;10250955;28;92907;-72
2023/05/05 01:48:17;;;;;;;;;;;18.50;58.80;;;;;;10249354;28;94581;-73
2023/05/05 01:53:20;;;;;;;;;;;18.50;58.80;;;;;;10250699;28;92686;-73
2023/05/05 01:58:22;;;;;;;;;;;18.50;58.80;;;;;;10246994;28;96028;-73
2023/05/05 02:03:24;;;;;;;;;;;18.50;58.80;;;;;;10250678;28;94819;-72
2023/05/05 02:08:27;;;;;;;;;;;18.50;58.80;;;;;;10231259;28;93578;-72
2023/05/05 02:13:31;;;;;;;;;;;18.50;58.90;;;;;;10249992;28;93209;-72
2023/05/05 02:18:34;;;;;;;;;;;18.50;58.80;;;;;;10248776;28;94147;-73
2023/05/05 02:23:37;;;;;;;;;;;18.50;58.80;;;;;;10250611;28;93998;-72
2023/05/05 02:28:40;;;;;;;;;;;18.50;58.80;;;;;;10250193;28;94702;-73
2023/05/05 02:33:43;;;;;;;;;;;18.50;58.80;;;;;;10251026;28;93871;-72
2023/05/05 02:38:45;;;;;;;;;;;18.50;58.90;;;;;;10249082;28;94255;-73
2023/05/05 02:43:48;;;;;;;;;;;18.50;58.90;;;;;;10248551;28;94480;-73
2023/05/05 02:48:50;;;;;;;;;;;18.40;58.90;;;;;;10245757;28;96882;-73
2023/05/05 02:53:52;;;;;;;;;;;18.50;58.90;;;;;;10248417;28;94329;-72
2023/05/05 02:58:59;;;;;;;;;;;18.40;58.90;;;;;;10248108;28;114065;-73
2023/05/05 03:04:11;;;;;;;;;;;18.40;58.90;;;;;;10248326;28;93453;-73
2023/05/05 03:09:16;;;;;;;;;;;18.40;59.00;;;;;;10247474;28;93457;-73
2023/05/05 03:14:20;;;;;;;;;;;18.40;59.00;;;;;;10248926;28;94340;-72
2023/05/05 03:19:22;;;;;;;;;;;18.40;59.00;;;;;;10247529;28;94707;-73
2023/05/05 03:24:23;;;;;;;;;;;18.40;59.00;;;;;;10248417;28;93862;-73
2023/05/05 03:29:25;;;;;;;;;;;18.40;59.00;;;;;;10247461;28;93259;-73
2023/05/05 03:34:27;;;;;;;;;;;18.40;59.10;;;;;;10247265;28;94305;-73
2023/05/05 03:39:29;;;;;;;;;;;18.40;59.10;;;;;;10244576;28;95851;-72
2023/05/05 03:44:30;;;;;;;;;;;18.40;59.00;;;;;;10245548;28;93512;-72
2023/05/05 05:02:12;;;;;;;;;;;18.40;58.90;;;;;;10226902;28;93806;-67
2023/05/05 05:07:14;;;;;;;;;;;18.40;59.00;;;;;;10252012;28;94440;-68
2023/05/05 05:12:15;;;;;;;;;;;18.40;59.60;;;;;;10251911;28;94467;-67
2023/05/05 05:17:18;;;;;;;;;;;18.40;59.10;;;;;;10251318;28;94512;-67
2023/05/05 05:22:19;;;;;;;;;;;18.40;59.20;;;;;;10251714;28;92872;-67
2023/05/05 05:27:21;;;;;;;;;;;18.40;59.30;;;;;;10250875;28;93573;-67
2023/05/05 05:32:23;;;;;;;;;;;18.40;59.30;;;;;;10251928;28;94948;-67
2023/05/05 05:37:28;;;;;;;;;;;18.40;59.40;;;;;;10247682;28;96651;-67
2023/05/05 05:42:30;;;;;;;;;;;18.40;59.60;;;;;;10251210;28;93453;-68
2023/05/05 05:47:32;;;;;;;;;;;18.40;60.40;;;;;;10230626;28;93371;-67
2023/05/05 05:52:35;;;;;;;;;;;18.40;59.60;;;;;;10249159;28;92637;-67
2023/05/05 05:57:36;;;;;;;;;;;18.40;59.60;;;;;;10250890;28;94592;-68
2023/05/05 06:02:38;;;;;;;;;;;18.40;59.70;;;;;;10249644;28;94505;-68
2023/05/05 06:07:40;;;;;;;;;;;18.40;59.80;;;;;;10252088;28;94449;-67
2023/05/05 06:12:41;;;;;;;;;;;18.40;59.90;;;;;;10250863;28;92714;-67
2023/05/05 06:17:43;;;;;;;;;;;18.40;60.00;;;;;;10250124;28;94422;-68
2023/05/05 06:22:45;;;;;;;;;;;18.50;60.00;;;;;;10249292;28;93438;-67
2023/05/05 06:27:46;;;;;;;;;;;18.50;60.00;;;;;;10247313;28;96853;-67
2023/05/05 06:32:48;;;;;;;;;;;18.50;60.00;;;;;;10248823;28;93276;-69
2023/05/05 06:37:50;;;;;;;;;;;18.50;60.00;;;;;;10248918;28;93232;-69
2023/05/05 06:42:51;;;;;;;;;;;18.60;60.00;;;;;;10250009;28;93035;-68
2023/05/05 06:47:53;;;;;;;;;;;18.60;60.00;;;;;;10231301;28;92856;-69
2023/05/05 06:52:55;;;;;;;;;;;18.60;60.00;;;;;;10248901;28;93672;-69
2023/05/05 06:57:57;;;;;;;;;;;18.70;60.00;;;;;;10248875;28;92493;-69
2023/05/05 07:02:59;;;;;;;;;;;18.70;60.00;;;;;;10250095;28;93149;-68
2023/05/05 07:08:00;;;;;;;;;;;18.70;60.00;;;;;;10249763;28;93430;-69
2023/05/05 07:13:02;;;;;;;;;;;18.80;60.00;;;;;;10249963;28;94510;-69
2023/05/05 07:18:04;;;;;;;;;;;18.80;60.10;;;;;;10213232;28;95938;-69
2023/05/05 07:23:05;;;;;;;;;;;18.80;60.10;;;;;;10246782;28;94535;-69
2023/05/05 07:28:07;;;;;;;;;;;18.80;60.10;;;;;;10247685;28;93409;-68
2023/05/05 07:33:10;;;;;;;;;;;18.90;60.30;;;;;;10245666;28;94090;-69
2023/05/05 07:38:11;;;;;;;;;;;18.80;60.40;;;;;;10268322;28;93450;-71
2023/05/05 07:43:13;;;;;;;;;;;18.80;60.50;;;;;;10287812;28;93440;-69
2023/05/05 07:48:15;;;;;;;;;;;18.80;60.60;;;;;;10286676;28;94028;-68
2023/05/05 07:53:17;;;;;;;;;;;18.90;60.60;;;;;;10288502;28;92599;-68
2023/05/05 07:58:18;;;;;;;;;;;18.80;60.70;;;;;;10287249;28;93040;-68
2023/05/05 08:03:22;;;;;;;;;;;18.80;60.90;;;;;;10286950;28;94516;-69
2023/05/05 08:08:25;;;;;;;;;;;18.90;61.00;;;;;;10283912;28;96017;-69
2023/05/05 08:13:29;;;;;;;;;;;18.80;61.00;;;;;;10286652;28;93548;-69
2023/05/05 08:18:30;;;;;;;;;;;18.80;61.10;;;;;;10286896;28;93468;-69
2023/05/05 08:23:32;;;;;;;;;;;18.80;61.30;;;;;;10286570;28;94384;-69
2023/05/05 08:28:35;;;;;;;;;;;18.80;61.40;;;;;;10287650;28;94392;-70
2023/05/05 09:04:19;;;;;;;;;;;19.00;63.50;;;;;;10230823;28;97762;-66
2023/05/05 09:09:21;;;;;;;;;;;19.10;63.50;;;;;;10232453;28;93494;-66
2023/05/05 09:14:22;;;;;;;;;;;19.10;63.60;;;;;;10249269;28;94342;-67
2023/05/05 09:19:24;;;;;;;;;;;19.10;63.50;;;;;;10250016;28;94400;-67
2023/05/05 09:24:26;;;;;;;;;;;19.10;63.00;;;;;;10251660;28;93216;-67
2023/05/05 09:29:28;;;;;;;;;;;19.00;62.30;;;;;;10247537;28;94470;-67
2023/05/05 09:34:31;;;;;;;;;;;19.00;61.90;;;;;;10250654;28;93775;-67
2023/05/05 09:39:33;;;;;;;;;;;19.00;61.60;;;;;;10246386;28;92161;-67
2023/05/05 09:44:35;;;;;;;;;;;18.90;61.30;;;;;;10249125;28;94067;-67
2023/05/05 09:49:37;;;;;;;;;;;18.90;61.20;;;;;;10249521;28;94253;-66
2023/05/05 09:54:39;;;;;;;;;;;18.90;61.10;;;;;;10246292;28;96855;-66
2023/05/05 09:59:53;;;;;;;;;;;18.90;61.10;;;;;;10250928;28;94491;-69
2023/05/05 10:05:06;;;;;;;;;;;18.90;61.20;;;;;;10232165;28;94204;-69
2023/05/05 10:10:10;;;;;;;;;;;19.00;61.10;;;;;;10249953;28;94715;-67
2023/05/05 10:15:13;;;;;;;;;;;19.00;61.00;;;;;;10248810;28;93008;-68
2023/05/05 10:20:17;;;;;;;;;;;19.10;60.80;;;;;;10248046;28;94385;-68
2023/05/05 10:25:30;;;;;;;;;;;19.10;60.40;;;;;;10248121;28;93566;-67
2023/05/05 10:30:35;;;;;;;;;;;19.10;60.30;;;;;;10245090;28;93734;-68
2023/05/05 10:35:38;;;;;;;;;;;19.00;60.50;;;;;;10245538;28;94484;-67
2023/05/05 10:40:44;;;;;;;;;;;19.00;60.60;;;;;;10230139;28;92745;-67
2023/05/05 10:45:47;;;;;;;;;;;19.00;61.00;;;;;;10246457;28;95989;-67
2023/05/05 10:50:52;;;;;;;;;;;19.00;61.10;;;;;;10248773;28;93787;-67
2023/05/05 10:56:12;;;;;;;;;;;18.90;61.20;;;;;;10248356;28;94420;-67
2023/05/05 11:01:26;;;;;;;;;;;19.00;61.20;;;;;;10248596;28;93443;-68
2023/05/05 11:06:29;;;;;;;;;;;18.90;61.30;;;;;;10247011;28;94178;-68
2023/05/05 11:11:51;;;;;;;;;;;18.90;61.40;;;;;;10248327;28;94469;-66
2023/05/05 11:16:53;;;;;;;;;;;18.80;61.50;;;;;;10236389;28;93365;-67
2023/05/05 11:21:59;;;;;;;;;;;18.80;62.00;;;;;;10230803;28;93873;-67
2023/05/05 11:27:02;;;;;;;;;;;18.80;62.60;;;;;;10247183;28;93467;-67
2023/05/05 11:32:10;;;;;;;;;;;18.80;62.90;;;;;;10247333;28;93474;-66
2023/05/05 11:37:12;;;;;;;;;;;18.80;63.10;;;;;;10245154;28;96976;-65
2023/05/05 11:42:20;;;;;;;;;;;18.80;63.30;;;;;;10247097;28;93540;-66
2023/05/05 11:47:22;;;;;;;;;;;18.80;64.40;;;;;;10247391;28;94011;-64
2023/05/05 11:52:25;;;;;;;;;;;18.90;65.10;;;;;;10247717;28;93529;-64
2023/05/05 11:57:27;;;;;;;;;;;19.00;64.90;;;;;;10229334;28;93537;-64
2023/05/05 12:02:30;;;;;;;;;;;19.00;65.20;;;;;;10247477;28;94121;-64
2023/05/05 12:07:32;;;;;;;;;;;19.00;65.40;;;;;;10247391;28;94607;-65
2023/05/05 12:12:38;;;;;;;;;;;19.00;65.60;;;;;;10229901;28;92814;-65
2023/05/05 12:17:42;;;;;;;;;;;19.00;65.60;;;;;;10248611;28;94554;-65
2023/05/05 12:22:44;;;;;;;;;;;19.10;65.60;;;;;;10254521;28;94589;-65
2023/05/05 12:27:55;;;;;;;;;;;19.10;65.60;;;;;;10251301;28;96858;-64
2023/05/05 12:33:03;;;;;;;;;;;19.10;65.70;;;;;;10238529;28;94571;-64
2023/05/05 12:38:05;;;;;;;;;;;19.10;65.90;;;;;;10236837;28;94663;-64
2023/05/05 12:43:07;;;;;;;;;;;19.10;66.00;;;;;;10254098;28;94450;-64
2023/05/05 12:48:21;;;;;;;;;;;19.10;66.10;;;;;;10253810;28;93399;-64
2023/05/05 12:53:23;;;;;;;;;;;19.10;67.20;;;;;;10253245;28;93475;-65
2023/05/05 12:58:26;;;;;;;;;;;19.10;66.10;;;;;;10252432;28;94444;-64
2023/05/05 13:03:28;;;;;;;;;;;19.20;66.00;;;;;;10253961;28;92184;-65
2023/05/05 13:08:42;;;;;;;;;;;19.20;65.90;;;;;;10252666;28;94452;-65
2023/05/05 13:13:43;;;;;;;;;;;19.20;65.80;;;;;;10252819;28;93485;-65
2023/05/05 13:18:46;;;;;;;;;;;19.20;65.90;;;;;;10249856;28;96894;-65
2023/05/05 13:23:47;;;;;;;;;;;19.20;66.00;;;;;;10234509;28;93539;-64
2023/05/05 13:28:49;;;;;;;;;;;19.20;66.00;;;;;;10251440;28;94610;-62
2023/05/05 13:33:51;;;;;;;;;;;19.20;66.40;;;;;;10251659;28;94546;-62
2023/05/05 13:38:53;;;;;;;;;;;19.20;67.70;;;;;;10274407;28;93395;-62
2023/05/05 13:43:55;;;;;;;;;;;19.20;66.50;;;;;;10291960;28;93581;-62
2023/05/05 13:48:57;;;;;;;;;;;19.20;66.50;;;;;;10273895;28;94426;-62
2023/05/05 13:53:59;;;;;;;;;;;19.20;66.50;;;;;;10293154;28;93393;-62
2023/05/05 13:59:01;;;;;;;;;;;19.20;66.70;;;;;;10291693;28;94239;-62
2023/05/05 14:04:02;;;;;;;;;;;19.20;66.90;;;;;;10291182;28;93406;-62
2023/05/05 14:09:06;;;;;;;;;;;19.20;67.00;;;;;;10288340;28;95848;-62
2023/05/05 14:14:08;;;;;;;;;;;19.20;67.10;;;;;;10291368;28;94287;-62
2023/05/05 14:19:10;;;;;;;;;;;19.20;67.20;;;;;;10291485;28;94493;-62
2023/05/05 14:24:12;;;;;;;;;;;19.20;67.40;;;;;;10262246;28;93334;-62
2023/05/05 14:29:13;;;;;;;;;;;19.10;67.50;;;;;;10250360;28;94595;-61
2023/05/05 14:34:15;;;;;;;;;;;19.20;67.60;;;;;;10250226;28;93553;-62
2023/05/05 14:39:17;;;;;;;;;;;19.10;67.70;;;;;;10249124;28;93282;-62
2023/05/05 14:44:18;;;;;;;;;;;19.10;67.80;;;;;;10249919;28;92791;-62
2023/05/05 14:49:20;;;;;;;;;;;19.10;67.90;;;;;;10249232;28;93458;-62
2023/05/05 14:54:22;;;;;;;;;;;19.10;68.00;;;;;;10249265;28;94386;-62
2023/05/05 14:59:29;;;;;;;;;;;19.10;68.10;;;;;;10247522;28;95936;-62
2023/05/05 15:04:31;;;;;;;;;;;19.10;68.20;;;;;;10248804;28;93663;-62
2023/05/05 15:09:33;;;;;;;;;;;19.10;68.20;;;;;;10247330;28;93308;-63
2023/05/05 15:14:35;;;;;;;;;;;19.10;68.40;;;;;;10250212;28;93752;-62
2023/05/05 15:19:37;;;;;;;;;;;19.10;68.50;;;;;;10249589;28;94506;-62
2023/05/05 15:24:38;;;;;;;;;;;19.10;69.60;;;;;;10249273;28;94526;-62
2023/05/05 15:29:40;;;;;;;;;;;19.10;68.60;;;;;;10248472;28;93249;-62
2023/05/05 15:34:43;;;;;;;;;;;19.10;68.70;;;;;;10231362;28;92725;-63
2023/05/05 15:39:45;;;;;;;;;;;19.10;68.70;;;;;;10248064;28;93368;-61
2023/05/05 15:44:47;;;;;;;;;;;19.10;68.70;;;;;;10247961;28;94197;-63
2023/05/05 15:49:48;;;;;;;;;;;19.10;68.70;;;;;;10243887;28;95873;-62
2023/05/05 15:54:50;;;;;;;;;;;19.10;69.70;;;;;;10255092;28;93665;-61
2023/05/05 15:59:52;;;;;;;;;;;19.20;68.70;;;;;;10259127;28;93629;-61
2023/05/05 16:04:54;;;;;;;;;;;19.20;68.70;;;;;;10261248;28;94556;-61
2023/05/05 16:09:56;;;;;;;;;;;19.20;68.70;;;;;;10264575;28;93839;-61
2023/05/05 16:14:57;;;;;;;;;;;19.20;68.70;;;;;;10232297;28;94285;-62
2023/05/05 16:19:59;;;;;;;;;;;19.30;68.80;;;;;;10283367;28;93849;-61
2023/05/05 16:25:01;;;;;;;;;;;19.40;70.10;;;;;;10257793;28;92893;-64
2023/05/05 16:30:03;;;;;;;;;;;19.60;68.90;;;;;;10239506;28;93323;-63
2023/05/05 16:35:06;;;;;;;;;;;19.70;68.40;;;;;;10255536;28;92551;-64
2023/05/05 16:40:08;;;;;;;;;;;19.80;68.20;;;;;;10253239;28;95777;-63
2023/05/05 16:45:10;;;;;;;;;;;19.90;68.80;;;;;;10255596;28;93737;-64
2023/05/05 16:50:12;;;;;;;;;;;19.90;68.20;;;;;;10259307;28;95158;-64
2023/05/05 16:55:14;;;;;;;;;;;19.90;68.20;;;;;;10259596;28;93483;-64
2023/05/05 17:00:16;;;;;;;;;;;19.90;67.90;;;;;;10258683;28;93420;-64
2023/05/05 17:05:18;;;;;;;;;;;19.90;67.80;;;;;;10237409;28;94523;-64
2023/05/05 17:10:19;;;;;;;;;;;19.90;67.80;;;;;;10252594;28;93853;-64
2023/05/05 17:15:21;;;;;;;;;;;20.00;67.70;;;;;;10252321;28;93209;-63
2023/05/05 17:20:23;;;;;;;;;;;20.00;67.50;;;;;;10251737;28;94457;-66
2023/05/05 17:25:25;;;;;;;;;;;19.90;67.30;;;;;;10250241;28;94548;-61
2023/05/05 17:30:27;;;;;;;;;;;20.00;66.50;;;;;;10229899;28;95876;-63
2023/05/05 17:35:28;;;;;;;;;;;20.00;65.90;;;;;;10249386;28;94437;-63
2023/05/05 17:40:30;;;;;;;;;;;20.00;65.50;;;;;;10251079;28;92740;-64
2023/05/05 17:45:32;;;;;;;;;;;20.00;65.90;;;;;;10249643;28;92892;-64
2023/05/05 17:50:34;;;;;;;;;;;20.00;65.90;;;;;;10249713;28;93661;-64
2023/05/05 17:55:35;;;;;;;;;;;20.00;66.10;;;;;;10250829;28;94380;-64
2023/05/05 18:00:37;;;;;;;;;;;20.10;66.20;;;;;;10251732;28;92450;-64
2023/05/05 18:05:39;;;;;;;;;;;20.10;66.30;;;;;;10247342;28;94101;-64
2023/05/05 18:10:40;;;;;;;;;;;20.10;66.40;;;;;;10273664;28;94429;-65
2023/05/05 18:15:42;;;;;;;;;;;20.10;66.40;;;;;;10289508;28;94452;-65
2023/05/05 18:20:44;;;;;;;;;;;20.10;66.50;;;;;;10288059;28;95937;-64
2023/05/05 18:25:45;;;;;;;;;;;20.00;66.60;;;;;;10272765;28;93754;-64
2023/05/05 18:30:47;;;;;;;;;;;19.90;66.70;;;;;;10288136;28;93496;-64
2023/05/05 18:35:49;;;;;;;;;;;19.90;66.90;;;;;;10290863;28;94596;-64
2023/05/05 18:40:51;;;;;;;;;;;19.80;67.00;;;;;;10289723;28;93530;-64
2023/05/05 18:45:52;;;;;;;;;;;19.80;66.90;;;;;;10289564;28;93524;-64
2023/05/05 18:50:59;;;;;;;;;;;19.70;67.00;;;;;;10289703;28;93653;-64
2023/05/05 18:56:01;;;;;;;;;;;19.70;67.00;;;;;;10290281;28;92669;-64
2023/05/05 19:01:03;;;;;;;;;;;19.60;67.00;;;;;;10288246;28;93452;-63
2023/05/05 19:06:05;;;;;;;;;;;19.60;67.20;;;;;;10288943;28;94320;-63
2023/05/05 19:11:06;;;;;;;;;;;19.60;67.30;;;;;;10286482;28;97061;-64
2023/05/05 19:16:09;;;;;;;;;;;19.60;68.40;;;;;;10285577;28;94164;-64
2023/05/05 19:21:11;;;;;;;;;;;19.50;67.30;;;;;;10288862;28;93432;-64
2023/05/05 19:26:14;;;;;;;;;;;19.50;67.20;;;;;;10288031;28;93483;-67
2023/05/05 19:31:15;;;;;;;;;;;19.50;67.60;;;;;;10287589;28;93678;-67
2023/05/05 19:36:18;;;;;;;;;;;19.40;67.20;;;;;;10287806;28;93623;-68
2023/05/05 19:41:19;;;;;;;;;;;19.40;67.20;;;;;;10287387;28;92735;-66
2023/05/05 19:46:22;;;;;;;;;;;19.40;67.30;;;;;;10289086;28;93227;-67
2023/05/05 19:51:23;;;;;;;;;;;19.30;67.30;;;;;;10287031;28;93528;-66
2023/05/05 19:56:25;;;;;;;;;;;19.40;67.40;;;;;;10287193;28;93624;-67
2023/05/05 20:01:27;;;;;;;;;;;19.30;67.30;;;;;;10285313;28;95882;-67
2023/05/05 20:06:30;;;;;;;;;;;19.30;67.30;;;;;;10286786;28;93426;-67
2023/05/05 20:11:32;;;;;;;;;;;19.30;67.40;;;;;;10287893;28;93353;-67
2023/05/05 20:16:33;;;;;;;;;;;19.30;67.30;;;;;;10287402;28;93516;-68
2023/05/05 20:21:36;;;;;;;;;;;19.30;67.40;;;;;;10239062;28;94457;-68
2023/05/05 20:26:37;;;;;;;;;;;19.30;67.30;;;;;;10206164;28;93693;-65
2023/05/05 20:31:39;;;;;;;;;;;19.30;67.40;;;;;;10205066;28;94592;-67
2023/05/05 20:36:41;;;;;;;;;;;19.30;67.70;;;;;;10206291;28;91919;-66
2023/05/05 20:41:45;;;;;;;;;;;19.30;67.30;;;;;;10212899;28;93532;-67
2023/05/05 20:46:46;;;;;;;;;;;19.40;67.40;;;;;;10212518;28;94261;-66
2023/05/05 20:51:48;;;;;;;;;;;19.30;67.40;;;;;;10209212;28;97202;-66
2023/05/05 20:56:51;;;;;;;;;;;19.30;67.50;;;;;;10212707;28;94355;-66
2023/05/05 21:01:55;;;;;;;;;;;19.40;67.50;;;;;;10213178;28;94627;-67
2023/05/05 21:06:57;;;;;;;;;;;19.40;67.50;;;;;;10210112;28;93397;-67
2023/05/05 21:11:59;;;;;;;;;;;19.40;67.50;;;;;;10212336;28;93516;-66
2023/05/05 21:17:00;;;;;;;;;;;19.30;67.30;;;;;;10211783;28;93240;-66
2023/05/05 21:22:03;;;;;;;;;;;19.30;67.20;;;;;;10211624;28;94376;-66
2023/05/05 21:27:04;;;;;;;;;;;19.30;67.00;;;;;;10213135;28;93854;-66
2023/05/05 21:32:07;;;;;;;;;;;19.30;66.90;;;;;;10209700;28;93640;-67
2023/05/05 21:37:10;;;;;;;;;;;19.20;66.90;;;;;;10212296;28;94537;-67
2023/05/05 21:42:12;;;;;;;;;;;19.30;66.80;;;;;;10207390;28;96776;-67
2023/05/05 21:47:15;;;;;;;;;;;19.20;66.60;;;;;;10210948;28;93498;-67
2023/05/05 21:52:16;;;;;;;;;;;19.20;66.50;;;;;;10209735;28;93358;-66
2023/05/05 21:57:18;;;;;;;;;;;19.20;66.40;;;;;;10211667;28;94609;-64
2023/05/05 22:02:20;;;;;;;;;;;19.20;66.40;;;;;;10210853;28;93880;-66
2023/05/05 22:07:24;;;;;;;;;;;19.10;66.20;;;;;;10244573;28;93483;-67
2023/05/05 22:12:26;;;;;;;;;;;19.10;66.20;;;;;;10233474;28;93005;-66
2023/05/05 22:17:28;;;;;;;;;;;19.10;66.20;;;;;;10251384;28;92482;-66
2023/05/05 22:22:30;;;;;;;;;;;19.10;66.00;;;;;;10251308;28;94657;-66
2023/05/05 22:27:32;;;;;;;;;;;19.10;66.00;;;;;;10249957;28;92808;-65
2023/05/05 22:32:33;;;;;;;;;;;19.10;66.00;;;;;;10246965;28;95967;-66
2023/05/05 22:37:35;;;;;;;;;;;19.00;65.90;;;;;;10250355;28;94434;-66
2023/05/05 22:42:37;;;;;;;;;;;19.00;65.70;;;;;;10250453;28;93752;-65
2023/05/05 22:47:38;;;;;;;;;;;19.00;65.70;;;;;;10249610;28;93439;-66
2023/05/05 22:52:40;;;;;;;;;;;19.00;65.60;;;;;;10250023;28;94178;-66
2023/05/05 22:57:42;;;;;;;;;;;18.90;65.50;;;;;;10250240;28;94333;-66
2023/05/05 23:02:44;;;;;;;;;;;18.90;65.50;;;;;;10249087;28;94435;-66
2023/05/05 23:07:45;;;;;;;;;;;18.90;65.50;;;;;;10248304;28;92936;-66
2023/05/05 23:12:47;;;;;;;;;;;18.90;65.40;;;;;;10248486;28;93433;-67
2023/05/05 23:17:49;;;;;;;;;;;18.90;65.30;;;;;;10231218;28;93528;-66
2023/05/05 23:22:51;;;;;;;;;;;18.90;65.30;;;;;;10245796;28;95956;-66
2023/05/05 23:27:53;;;;;;;;;;;18.90;65.40;;;;;;10247582;28;93476;-64
2023/05/05 23:32:56;;;;;;;;;;;18.80;65.20;;;;;;10249590;28;94488;-66
2023/05/05 23:37:58;;;;;;;;;;;18.80;65.20;;;;;;10248595;28;93494;-65
2023/05/05 23:42:59;;;;;;;;;;;18.80;65.30;;;;;;10246895;28;94412;-66
2023/05/05 23:48:01;;;;;;;;;;;18.80;65.30;;;;;;10247924;28;94625;-67
2023/05/05 23:53:03;;;;;;;;;;;18.80;65.20;;;;;;10247969;28;94493;-66
2023/05/05 23:58:05;;;;;;;;;;;18.80;65.20;;;;;;10248282;28;92139;-67
